nws-alerts: Checking more than four warning/county codes can delay the loading of your pages. You should use a cron job to get the data.
EllijayWeather Historical Data
Daily Summary for December 17, 2018 Units:  English    Metric   Both
Daily Weekly Monthly Yearly
  High: Low: Average:
Temperature: 57.0 °F 33.0 °F 46 °F
Dew Point: 44.0 °F 16.0 °F 31.1 °F
Humidity: 74% 40% 57%
Wind Speed: 8mph 0mph 1.2mph
Wind Gust: 9mph - -
Wind- - West
Pressure: 30.3 in 30.2 in -
Precipitation: 0.000 in    
 
 
Tabular Data for December 17, 2018
Time Temperature Dew Point Pressure Wind Wind Speed Wind Gust Humidity Rainfall Rate (Hourly)
00:04 46.0 °F 26.0 °F 30.2 in Calm   1 mph 46% 0.000 in
00:09 46.0 °F 27.0 °F 30.2 in Calm   1 mph 47% 0.000 in
00:14 46.0 °F 27.0 °F 30.2 in NNE 2 mph 5 mph 47% 0.000 in
00:19 46.0 °F 26.0 °F 30.2 in Calm   5 mph 46% 0.000 in
00:24 46.0 °F 26.0 °F 30.2 in Calm   2 mph 46% 0.000 in
00:29 46.0 °F 26.0 °F 30.2 in NNW 1 mph 3 mph 46% 0.000 in
00:34 46.0 °F 26.0 °F 30.2 in Calm   3 mph 46% 0.000 in
00:39 45.0 °F 25.0 °F 30.2 in WNW 1 mph 3 mph 45% 0.000 in
00:44 45.0 °F 25.0 °F 30.2 in NW 1 mph 2 mph 45% 0.000 in
00:49 45.0 °F 25.0 °F 30.2 in NNW 2 mph 4 mph 44% 0.000 in
00:54 46.0 °F 25.0 °F 30.2 in NW 4 mph 5 mph 44% 0.000 in
00:59 46.0 °F 24.0 °F 30.2 in NW 3 mph 6 mph 43% 0.000 in
01:04 46.0 °F 25.0 °F 30.2 in Calm   3 mph 44% 0.000 in
01:09 46.0 °F 25.0 °F 30.2 in WNW 1 mph 3 mph 44% 0.000 in
01:14 46.0 °F 26.0 °F 30.2 in NNW 1 mph 1 mph 45% 0.000 in
01:19 46.0 °F 26.0 °F 30.2 in NW 3 mph 5 mph 45% 0.000 in
01:24 46.0 °F 26.0 °F 30.2 in NW 2 mph 3 mph 45% 0.000 in
01:29 46.0 °F 27.0 °F 30.2 in NNW 3 mph 3 mph 47% 0.000 in
01:34 46.0 °F 27.0 °F 30.2 in NW 3 mph 4 mph 48% 0.000 in
01:39 46.0 °F 28.0 °F 30.2 in NNE 2 mph 4 mph 49% 0.000 in
01:44 46.0 °F 28.0 °F 30.2 in NW 1 mph 4 mph 50% 0.000 in
01:49 46.0 °F 29.0 °F 30.2 in NW 1 mph 3 mph 51% 0.000 in
01:54 46.0 °F 29.0 °F 30.2 in NE 3 mph 4 mph 51% 0.000 in
01:59 46.0 °F 29.0 °F 30.2 in Calm   3 mph 52% 0.000 in
02:04 46.0 °F 29.0 °F 30.2 in WNW 2 mph 3 mph 52% 0.000 in
02:09 46.0 °F 30.0 °F 30.2 in NE 2 mph 5 mph 53% 0.000 in
02:14 46.0 °F 30.0 °F 30.2 in NW 1 mph 6 mph 53% 0.000 in
02:19 46.0 °F 30.0 °F 30.2 in WNW 3 mph 5 mph 54% 0.000 in
02:24 46.0 °F 30.0 °F 30.2 in NNW 4 mph 4 mph 54% 0.000 in
02:29 46.0 °F 30.0 °F 30.2 in NW 3 mph 4 mph 55% 0.000 in
02:34 46.0 °F 31.0 °F 30.2 in West 3 mph 3 mph 56% 0.000 in
02:39 46.0 °F 31.0 °F 30.2 in NW 7 mph 9 mph 56% 0.000 in
02:44 46.0 °F 31.0 °F 30.2 in NNW 2 mph 5 mph 57% 0.000 in
02:49 46.0 °F 32.0 °F 30.2 in NW 1 mph 5 mph 57% 0.000 in
02:54 46.0 °F 32.0 °F 30.2 in NNE 3 mph 3 mph 57% 0.000 in
02:59 46.0 °F 32.0 °F 30.2 in NW 2 mph 3 mph 57% 0.000 in
03:04 46.0 °F 32.0 °F 30.2 in NE 3 mph 3 mph 57% 0.000 in
03:09 46.0 °F 32.0 °F 30.2 in NNW 3 mph 5 mph 58% 0.000 in
03:14 46.0 °F 32.0 °F 30.2 in NNW 3 mph 5 mph 58% 0.000 in
03:19 46.0 °F 32.0 °F 30.2 in NW 2 mph 5 mph 58% 0.000 in
03:24 46.0 °F 32.0 °F 30.2 in WNW 5 mph 8 mph 58% 0.000 in
03:29 46.0 °F 32.0 °F 30.2 in WNW 2 mph 5 mph 59% 0.000 in
03:34 46.0 °F 32.0 °F 30.2 in NW 1 mph 5 mph 59% 0.000 in
03:39 46.0 °F 32.0 °F 30.2 in NNW 4 mph 4 mph 58% 0.000 in
03:44 46.0 °F 32.0 °F 30.2 in Calm   4 mph 58% 0.000 in
03:49 46.0 °F 32.0 °F 30.2 in WNW 3 mph 4 mph 58% 0.000 in
03:54 46.0 °F 32.0 °F 30.2 in Calm   1 mph 58% 0.000 in
03:59 46.0 °F 32.0 °F 30.2 in NNW 1 mph 4 mph 59% 0.000 in
04:04 46.0 °F 32.0 °F 30.2 in NW 2 mph 4 mph 59% 0.000 in
04:09 46.0 °F 32.0 °F 30.2 in NW 1 mph 4 mph 59% 0.000 in
04:14 45.0 °F 32.0 °F 30.2 in West 2 mph 4 mph 58% 0.000 in
04:19 45.0 °F 31.0 °F 30.2 in Calm   1 mph 57% 0.000 in
04:24 45.0 °F 31.0 °F 30.2 in Calm   1 mph 57% 0.000 in
04:29 45.0 °F 30.0 °F 30.2 in Calm   3 mph 56% 0.000 in
04:34 45.0 °F 30.0 °F 30.2 in Calm   3 mph 55% 0.000 in
04:39 45.0 °F 29.0 °F 30.2 in WNW 2 mph 2 mph 54% 0.000 in
04:44 45.0 °F 29.0 °F 30.2 in Calm   2 mph 54% 0.000 in
04:49 45.0 °F 30.0 °F 30.2 in NW 2 mph 4 mph 55% 0.000 in
04:54 45.0 °F 30.0 °F 30.2 in Calm     55% 0.000 in
04:59 45.0 °F 29.0 °F 30.2 in Calm     54% 0.000 in
05:04 44.0 °F 28.0 °F 30.2 in Calm     53% 0.000 in
05:09 44.0 °F 28.0 °F 30.2 in Calm   1 mph 53% 0.000 in
05:14 44.0 °F 27.0 °F 30.2 in Calm     52% 0.000 in
05:19 44.0 °F 27.0 °F 30.2 in Calm     51% 0.000 in
05:24 43.0 °F 26.0 °F 30.2 in Calm     50% 0.000 in
05:29 43.0 °F 26.0 °F 30.2 in Calm     50% 0.000 in
05:34 43.0 °F 25.0 °F 30.2 in Calm     49% 0.000 in
05:39 43.0 °F 25.0 °F 30.2 in Calm     49% 0.000 in
05:44 42.0 °F 24.0 °F 30.2 in Calm     48% 0.000 in
05:49 42.0 °F 23.0 °F 30.2 in Calm     47% 0.000 in
05:54 42.0 °F 23.0 °F 30.2 in Calm     47% 0.000 in
05:59 42.0 °F 23.0 °F 30.2 in Calm     47% 0.000 in
06:04 41.0 °F 23.0 °F 30.2 in Calm     47% 0.000 in
06:09 41.0 °F 22.0 °F 30.2 in Calm     46% 0.000 in
06:14 41.0 °F 22.0 °F 30.2 in Calm     46% 0.000 in
06:19 41.0 °F 21.0 °F 30.2 in Calm     46% 0.000 in
06:23 40.0 °F 21.0 °F 30.2 in Calm     45% 0.000 in
06:29 40.0 °F 20.0 °F 30.2 in Calm     45% 0.000 in
06:34 40.0 °F 20.0 °F 30.2 in Calm     45% 0.000 in
06:39 40.0 °F 20.0 °F 30.2 in Calm     44% 0.000 in
06:44 40.0 °F 19.0 °F 30.2 in Calm     44% 0.000 in
06:49 40.0 °F 19.0 °F 30.2 in Calm     43% 0.000 in
06:54 39.0 °F 19.0 °F 30.2 in Calm     43% 0.000 in
06:59 39.0 °F 19.0 °F 30.2 in Calm     43% 0.000 in
07:04 39.0 °F 18.0 °F 30.2 in Calm     42% 0.000 in
07:09 39.0 °F 18.0 °F 30.2 in Calm   1 mph 42% 0.000 in
07:14 39.0 °F 18.0 °F 30.2 in NW 1 mph 2 mph 42% 0.000 in
07:19 40.0 °F 18.0 °F 30.2 in WNW 1 mph 1 mph 41% 0.000 in
07:24 41.0 °F 18.0 °F 30.2 in NW 3 mph 3 mph 40% 0.000 in
07:29 41.0 °F 18.0 °F 30.2 in Calm   3 mph 40% 0.000 in
07:34 41.0 °F 18.0 °F 30.2 in WSW 1 mph 2 mph 40% 0.000 in
07:39 41.0 °F 19.0 °F 30.2 in SE 2 mph 2 mph 41% 0.000 in
07:44 41.0 °F 19.0 °F 30.2 in WSW 1 mph 3 mph 41% 0.000 in
07:49 42.0 °F 20.0 °F 30.2 in Calm   3 mph 42% 0.000 in
07:54 42.0 °F 21.0 °F 30.2 in Calm     43% 0.000 in
07:59 41.0 °F 21.0 °F 30.2 in Calm     44% 0.000 in
08:04 41.0 °F 21.0 °F 30.2 in NW 1 mph 2 mph 44% 0.000 in
08:09 42.0 °F 22.0 °F 30.2 in NW 1 mph 1 mph 46% 0.000 in
08:14 42.0 °F 23.0 °F 30.2 in Calm     47% 0.000 in
08:19 42.0 °F 23.0 °F 30.2 in Calm     48% 0.000 in
08:24 42.0 °F 24.0 °F 30.2 in Calm   1 mph 49% 0.000 in
08:29 41.0 °F 24.0 °F 30.2 in Calm   1 mph 49% 0.000 in
08:34 41.0 °F 24.0 °F 30.2 in Calm     49% 0.000 in
08:39 41.0 °F 23.0 °F 30.2 in Calm     48% 0.000 in
08:44 41.0 °F 23.0 °F 30.2 in Calm     48% 0.000 in
08:49 41.0 °F 22.0 °F 30.2 in Calm     46% 0.000 in
08:54 42.0 °F 22.0 °F 30.2 in Calm     46% 0.000 in
08:59 42.0 °F 23.0 °F 30.2 in Calm   1 mph 46% 0.000 in
09:04 42.0 °F 24.0 °F 30.2 in WNW 1 mph 1 mph 48% 0.000 in
09:09 43.0 °F 24.0 °F 30.2 in WNW 1 mph 1 mph 48% 0.000 in
09:14 43.0 °F 27.0 °F 30.2 in WNW 1 mph 3 mph 52% 0.000 in
09:19 44.0 °F 30.0 °F 30.2 in Calm   3 mph 58% 0.000 in
09:24 44.0 °F 34.0 °F 30.2 in NNW 1 mph 3 mph 66% 0.000 in
09:29 45.0 °F 36.0 °F 30.2 in WNW 2 mph 3 mph 72% 0.000 in
09:34 46.0 °F 38.0 °F 30.3 in ENE 5 mph 5 mph 74% 0.000 in
09:39 47.0 °F 39.0 °F 30.3 in NW 5 mph 5 mph 74% 0.000 in
09:44 48.0 °F 39.0 °F 30.3 in Calm   2 mph 74% 0.000 in
09:49 48.0 °F 40.0 °F 30.3 in Calm   2 mph 74% 0.000 in
09:54 48.0 °F 40.0 °F 30.3 in Calm     73% 0.000 in
09:59 48.0 °F 40.0 °F 30.3 in WNW 3 mph 3 mph 73% 0.000 in
10:04 49.0 °F 40.0 °F 30.3 in North 1 mph 4 mph 73% 0.000 in
10:09 49.0 °F 40.0 °F 30.3 in Calm   4 mph 72% 0.000 in
10:14 49.0 °F 40.0 °F 30.3 in NW 1 mph 3 mph 72% 0.000 in
10:19 49.0 °F 40.0 °F 30.2 in WNW 2 mph 3 mph 70% 0.000 in
10:24 50.0 °F 40.0 °F 30.2 in NW 6 mph 8 mph 71% 0.000 in
10:29 50.0 °F 40.0 °F 30.2 in NW 1 mph 3 mph 68% 0.000 in
10:34 50.0 °F 39.0 °F 30.2 in WNW 1 mph 3 mph 67% 0.000 in
10:39 50.0 °F 39.0 °F 30.2 in NNE 1 mph 4 mph 67% 0.000 in
10:44 50.0 °F 40.0 °F 30.2 in NW 7 mph 7 mph 69% 0.000 in
10:49 50.0 °F 40.0 °F 30.2 in WNW 2 mph 7 mph 67% 0.000 in
10:54 50.0 °F 40.0 °F 30.2 in NNE 6 mph 7 mph 67% 0.000 in
10:59 51.0 °F 40.0 °F 30.2 in NW 1 mph 4 mph 67% 0.000 in
11:04 51.0 °F 41.0 °F 30.2 in NNW 2 mph 3 mph 68% 0.000 in
11:09 51.0 °F 40.0 °F 30.2 in Calm   4 mph 67% 0.000 in
11:14 51.0 °F 40.0 °F 30.2 in West 6 mph 6 mph 66% 0.000 in
11:19 51.0 °F 41.0 °F 30.2 in Calm   1 mph 67% 0.000 in
11:24 52.0 °F 41.0 °F 30.2 in Calm   1 mph 67% 0.000 in
11:29 52.0 °F 42.0 °F 30.2 in NW 1 mph 1 mph 68% 0.000 in
11:34 52.0 °F 42.0 °F 30.2 in Calm   1 mph 69% 0.000 in
11:39 53.0 °F 42.0 °F 30.2 in WNW 1 mph 3 mph 68% 0.000 in
11:44 53.0 °F 42.0 °F 30.2 in WNW 2 mph 4 mph 66% 0.000 in
11:49 53.0 °F 41.0 °F 30.2 in NW 2 mph 4 mph 65% 0.000 in
11:54 53.0 °F 42.0 °F 30.2 in ENE 1 mph 3 mph 67% 0.000 in
11:59 53.0 °F 42.0 °F 30.2 in NW 3 mph 3 mph 66% 0.000 in
12:04 53.0 °F 42.0 °F 30.2 in NNW 4 mph 4 mph 66% 0.000 in
12:09 53.0 °F 42.0 °F 30.2 in NNW 3 mph 3 mph 66% 0.000 in
12:14 53.0 °F 41.0 °F 30.2 in NW 4 mph 5 mph 63% 0.000 in
12:19 53.0 °F 42.0 °F 30.2 in Calm   3 mph 65% 0.000 in
12:24 54.0 °F 42.0 °F 30.2 in WNW 2 mph 5 mph 66% 0.000 in
12:29 54.0 °F 43.0 °F 30.2 in West 1 mph 5 mph 66% 0.000 in
12:34 54.0 °F 43.0 °F 30.2 in North 3 mph 5 mph 66% 0.000 in
12:39 54.0 °F 43.0 °F 30.2 in NNW 6 mph 7 mph 65% 0.000 in
12:44 54.0 °F 43.0 °F 30.2 in NW 1 mph 7 mph 65% 0.000 in
12:49 55.0 °F 43.0 °F 30.2 in NNW 2 mph 4 mph 65% 0.000 in
12:54 55.0 °F 44.0 °F 30.2 in NW 4 mph 4 mph 66% 0.000 in
12:59 55.0 °F 44.0 °F 30.2 in Calm   2 mph 67% 0.000 in
13:04 55.0 °F 44.0 °F 30.2 in WNW 4 mph 4 mph 66% 0.000 in
13:09 55.0 °F 44.0 °F 30.2 in NW 6 mph 6 mph 67% 0.000 in
13:14 55.0 °F 44.0 °F 30.2 in WNW 2 mph 6 mph 67% 0.000 in
13:19 56.0 °F 42.0 °F 30.2 in WNW 5 mph 5 mph 61% 0.000 in
13:24 56.0 °F 43.0 °F 30.2 in Calm   4 mph 62% 0.000 in
13:29 56.0 °F 41.0 °F 30.2 in NW 8 mph 8 mph 58% 0.000 in
13:34 57.0 °F 41.0 °F 30.2 in North 1 mph 6 mph 55% 0.000 in
13:39 57.0 °F 41.0 °F 30.2 in NNW 7 mph 9 mph 55% 0.000 in
13:44 57.0 °F 40.0 °F 30.2 in NW 4 mph 7 mph 54% 0.000 in
13:49 57.0 °F 42.0 °F 30.2 in NW 3 mph 4 mph 57% 0.000 in
13:54 57.0 °F 41.0 °F 30.2 in Calm   2 mph 56% 0.000 in
13:59 57.0 °F 41.0 °F 30.2 in WNW 3 mph 3 mph 56% 0.000 in
14:04 57.0 °F 41.0 °F 30.2 in NW 4 mph 4 mph 55% 0.000 in
14:09 57.0 °F 41.0 °F 30.2 in NE 3 mph 4 mph 56% 0.000 in
14:14 57.0 °F 41.0 °F 30.2 in NW 3 mph 3 mph 55% 0.000 in
14:19 57.0 °F 41.0 °F 30.2 in NW 1 mph 1 mph 54% 0.000 in
14:24 57.0 °F 39.0 °F 30.2 in NW 2 mph 6 mph 52% 0.000 in
14:29 57.0 °F 41.0 °F 30.2 in East 4 mph 4 mph 55% 0.000 in
14:34 57.0 °F 40.0 °F 30.2 in NE 2 mph 3 mph 53% 0.000 in
14:39 57.0 °F 39.0 °F 30.2 in NNW 4 mph 4 mph 51% 0.000 in
14:44 57.0 °F 41.0 °F 30.2 in NW 2 mph 3 mph 54% 0.000 in
14:49 57.0 °F 40.0 °F 30.2 in North 5 mph 5 mph 53% 0.000 in
14:54 57.0 °F 37.0 °F 30.2 in Calm   2 mph 47% 0.000 in
14:59 57.0 °F 38.0 °F 30.2 in SW 3 mph 3 mph 48% 0.000 in
15:04 57.0 °F 38.0 °F 30.2 in NW 3 mph 4 mph 48% 0.000 in
15:09 57.0 °F 36.0 °F 30.2 in Calm   2 mph 46% 0.000 in
15:14 57.0 °F 35.0 °F 30.2 in NNW 4 mph 7 mph 44% 0.000 in
15:19 57.0 °F 38.0 °F 30.2 in NW 2 mph 7 mph 48% 0.000 in
15:24 57.0 °F 37.0 °F 30.2 in WSW 4 mph 6 mph 48% 0.000 in
15:29 57.0 °F 38.0 °F 30.2 in Calm   2 mph 50% 0.000 in
15:34 57.0 °F 38.0 °F 30.2 in WNW 2 mph 4 mph 50% 0.000 in
15:39 56.0 °F 37.0 °F 30.2 in WNW 3 mph 3 mph 48% 0.000 in
15:44 56.0 °F 36.0 °F 30.2 in NNW 4 mph 9 mph 47% 0.000 in
15:49 57.0 °F 35.0 °F 30.2 in NNW 2 mph 9 mph 45% 0.000 in
15:54 57.0 °F 37.0 °F 30.2 in NW 5 mph 5 mph 47% 0.000 in
15:59 56.0 °F 38.0 °F 30.2 in WNW 3 mph 5 mph 50% 0.000 in
16:04 56.0 °F 38.0 °F 30.2 in NW 3 mph 8 mph 50% 0.000 in
16:09 56.0 °F 37.0 °F 30.2 in NNW 3 mph 7 mph 50% 0.000 in
16:14 56.0 °F 37.0 °F 30.2 in NW 1 mph 7 mph 49% 0.000 in
16:19 55.0 °F 35.0 °F 30.2 in NW 7 mph 7 mph 47% 0.000 in
16:24 55.0 °F 35.0 °F 30.2 in NW 2 mph 5 mph 47% 0.000 in
16:29 55.0 °F 37.0 °F 30.2 in NNW 3 mph 7 mph 50% 0.000 in
16:34 55.0 °F 37.0 °F 30.2 in WNW 3 mph 4 mph 50% 0.000 in
16:39 55.0 °F 36.0 °F 30.2 in Calm   4 mph 50% 0.000 in
16:44 55.0 °F 37.0 °F 30.2 in Calm   1 mph 51% 0.000 in
16:49 54.0 °F 37.0 °F 30.2 in Calm     53% 0.000 in
16:54 54.0 °F 39.0 °F 30.2 in WNW 1 mph 1 mph 59% 0.000 in
16:59 53.0 °F 39.0 °F 30.2 in Calm   2 mph 57% 0.000 in
17:04 53.0 °F 38.0 °F 30.2 in NW 2 mph 3 mph 58% 0.000 in
17:09 53.0 °F 39.0 °F 30.2 in Calm   3 mph 61% 0.000 in
17:14 52.0 °F 39.0 °F 30.2 in Calm     63% 0.000 in
17:19 52.0 °F 40.0 °F 30.2 in Calm     65% 0.000 in
17:24 51.0 °F 40.0 °F 30.2 in WNW 1 mph 1 mph 66% 0.000 in
17:29 50.0 °F 40.0 °F 30.2 in Calm   1 mph 67% 0.000 in
17:34 50.0 °F 39.0 °F 30.2 in WNW 1 mph 1 mph 67% 0.000 in
17:39 49.0 °F 39.0 °F 30.2 in Calm     69% 0.000 in
17:44 49.0 °F 39.0 °F 30.2 in WNW 1 mph 2 mph 69% 0.000 in
17:49 48.0 °F 39.0 °F 30.2 in Calm   2 mph 69% 0.000 in
17:54 48.0 °F 38.0 °F 30.2 in Calm     69% 0.000 in
17:59 48.0 °F 39.0 °F 30.2 in Calm     70% 0.000 in
18:04 48.0 °F 38.0 °F 30.2 in Calm     70% 0.000 in
18:09 47.0 °F 38.0 °F 30.2 in Calm     71% 0.000 in
18:14 47.0 °F 38.0 °F 30.2 in Calm     72% 0.000 in
18:19 46.0 °F 38.0 °F 30.2 in Calm     72% 0.000 in
18:24 46.0 °F 38.0 °F 30.2 in Calm     73% 0.000 in
18:29 46.0 °F 37.0 °F 30.2 in Calm     73% 0.000 in
18:34 45.0 °F 37.0 °F 30.2 in Calm     73% 0.000 in
18:39 45.0 °F 37.0 °F 30.2 in Calm     73% 0.000 in
18:44 44.0 °F 36.0 °F 30.2 in Calm     73% 0.000 in
18:49 44.0 °F 36.0 °F 30.2 in Calm     73% 0.000 in
18:54 44.0 °F 36.0 °F 30.2 in Calm     74% 0.000 in
18:59 43.0 °F 36.0 °F 30.2 in Calm     74% 0.000 in
19:04 43.0 °F 35.0 °F 30.2 in Calm     73% 0.000 in
19:09 43.0 °F 35.0 °F 30.2 in Calm     73% 0.000 in
19:14 42.0 °F 34.0 °F 30.2 in Calm     72% 0.000 in
19:19 42.0 °F 34.0 °F 30.2 in Calm     72% 0.000 in
19:24 42.0 °F 33.0 °F 30.2 in Calm     71% 0.000 in
19:29 42.0 °F 33.0 °F 30.2 in Calm     71% 0.000 in
19:34 41.0 °F 32.0 °F 30.2 in Calm     70% 0.000 in
19:39 41.0 °F 32.0 °F 30.2 in Calm     70% 0.000 in
19:44 41.0 °F 32.0 °F 30.2 in Calm     69% 0.000 in
19:49 41.0 °F 31.0 °F 30.2 in Calm     69% 0.000 in
19:54 41.0 °F 31.0 °F 30.2 in Calm     69% 0.000 in
19:59 41.0 °F 31.0 °F 30.2 in Calm     68% 0.000 in
20:04 40.0 °F 31.0 °F 30.2 in Calm     68% 0.000 in
20:09 40.0 °F 30.0 °F 30.2 in Calm     67% 0.000 in
20:14 40.0 °F 30.0 °F 30.2 in Calm     66% 0.000 in
20:19 40.0 °F 29.0 °F 30.2 in Calm     66% 0.000 in
20:24 40.0 °F 29.0 °F 30.2 in Calm     65% 0.000 in
20:29 40.0 °F 28.0 °F 30.2 in Calm     64% 0.000 in
20:34 39.0 °F 28.0 °F 30.2 in Calm     63% 0.000 in
20:39 39.0 °F 28.0 °F 30.2 in Calm     63% 0.000 in
20:44 39.0 °F 28.0 °F 30.2 in Calm     63% 0.000 in
20:49 39.0 °F 27.0 °F 30.2 in Calm     62% 0.000 in
20:54 39.0 °F 27.0 °F 30.2 in Calm     62% 0.000 in
20:59 39.0 °F 27.0 °F 30.2 in Calm     62% 0.000 in
21:04 39.0 °F 27.0 °F 30.2 in Calm     62% 0.000 in
21:09 38.0 °F 26.0 °F 30.2 in Calm     61% 0.000 in
21:14 38.0 °F 26.0 °F 30.2 in Calm     61% 0.000 in
21:19 38.0 °F 25.0 °F 30.2 in Calm     60% 0.000 in
21:24 38.0 °F 25.0 °F 30.2 in Calm     59% 0.000 in
21:29 37.0 °F 24.0 °F 30.2 in Calm     59% 0.000 in
21:34 37.0 °F 24.0 °F 30.2 in Calm     59% 0.000 in
21:39 37.0 °F 23.0 °F 30.2 in Calm     58% 0.000 in
21:44 36.0 °F 23.0 °F 30.2 in Calm     57% 0.000 in
21:49 36.0 °F 22.0 °F 30.2 in Calm     56% 0.000 in
21:54 36.0 °F 22.0 °F 30.2 in Calm     56% 0.000 in
21:59 36.0 °F 21.0 °F 30.2 in Calm     55% 0.000 in
22:04 36.0 °F 21.0 °F 30.2 in Calm     54% 0.000 in
22:09 36.0 °F 21.0 °F 30.2 in Calm     54% 0.000 in
22:14 36.0 °F 20.0 °F 30.2 in Calm     53% 0.000 in
22:19 36.0 °F 20.0 °F 30.2 in Calm     52% 0.000 in
22:24 36.0 °F 20.0 °F 30.2 in Calm     52% 0.000 in
22:29 36.0 °F 19.0 °F 30.2 in Calm     51% 0.000 in
22:34 36.0 °F 19.0 °F 30.2 in Calm     50% 0.000 in
22:39 36.0 °F 19.0 °F 30.2 in Calm     50% 0.000 in
22:44 36.0 °F 19.0 °F 30.2 in Calm     50% 0.000 in
22:49 36.0 °F 19.0 °F 30.2 in Calm     50% 0.000 in
22:54 36.0 °F 19.0 °F 30.2 in Calm     50% 0.000 in
22:59 35.0 °F 19.0 °F 30.2 in Calm     51% 0.000 in
23:04 35.0 °F 19.0 °F 30.2 in Calm     51% 0.000 in
23:09 35.0 °F 19.0 °F 30.2 in Calm     51% 0.000 in
23:14 35.0 °F 18.0 °F 30.2 in Calm     51% 0.000 in
23:19 34.0 °F 18.0 °F 30.2 in Calm     51% 0.000 in
23:24 34.0 °F 18.0 °F 30.2 in Calm     51% 0.000 in
23:29 34.0 °F 17.0 °F 30.2 in Calm     50% 0.000 in
23:34 34.0 °F 19.0 °F 30.2 in Calm     53% 0.000 in
23:39 34.0 °F 17.0 °F 30.2 in Calm     50% 0.000 in
23:44 34.0 °F 17.0 °F 30.2 in Calm     50% 0.000 in
23:49 34.0 °F 17.0 °F 30.2 in Calm     50% 0.000 in
23:54 33.0 °F 16.0 °F 30.2 in Calm     49% 0.000 in
23:59 33.0 °F 16.0 °F 30.2 in Calm     49% 0.000 in
East Ellijay Weather
Compliments of Weather Underground - 2 mb